Time;durP1;ratioP1;P1;durP2;ratioP2;P2;SDS_P1;SDS_P2;PMS_P1;PMS_P2;Temp;Humidity;BMP_temperature;BMP_pressure;BME280_temperature;BME280_humidity;BME280_pressure;Samples;Min_cycle;Max_cycle;Signal;HPM_P1;HPM_P2
2023/02/05 00:00:04;;;;;;;6.88;2.95;;;25.70;2201.60;;;;;;5079201;28;20388;-75
2023/02/05 00:02:29;;;;;;;9.00;3.45;;;25.70;2201.60;;;;;;5057920;28;20132;-75
2023/02/05 00:04:55;;;;;;;;;;;25.70;2201.60;;;;;;5076562;28;20561;-75
2023/02/05 00:07:20;;;;;;;14.40;3.47;;;25.60;2201.60;;;;;;5067738;28;19977;-76
2023/02/05 00:09:46;;;;;;;;;;;0.90;2201.60;;;;;;5061670;28;20551;-75
2023/02/05 00:12:11;;;;;;;13.98;5.30;;;25.60;2201.60;;;;;;5064269;28;19920;-75
2023/02/05 00:14:37;;;;;;;;;;;25.70;2201.60;;;;;;5076323;28;20021;-75
2023/02/05 00:17:03;;;;;;;8.30;3.22;;;25.70;2201.60;;;;;;5084883;28;19908;-75
2023/02/05 00:19:28;;;;;;;;;;;25.60;2201.60;;;;;;5052902;28;20021;-76
2023/02/05 00:21:54;;;;;;;10.90;3.70;;;25.60;2201.60;;;;;;5066951;28;19916;-75
2023/02/05 00:24:19;;;;;;;;;;;25.70;2201.60;;;;;;5068857;28;20028;-75
2023/02/05 00:26:45;;;;;;;8.82;3.35;;;25.60;2201.60;;;;;;5067298;28;20003;-75
2023/02/05 00:29:11;;;;;;;;;;;25.60;2201.60;;;;;;5058787;28;20029;-76
2023/02/05 00:31:36;;;;;;;9.02;3.38;;;0.90;2201.60;;;;;;5065333;28;19908;-75
2023/02/05 00:34:02;;;;;;;;;;;0.80;2201.60;;;;;;5058193;28;20033;-76
2023/02/05 00:36:28;;;;;;;8.13;3.38;;;0.80;2201.60;;;;;;5060246;28;20369;-75
2023/02/05 00:38:53;;;;;;;;;;;0.80;2201.60;;;;;;5056230;28;20068;-75
2023/02/05 00:41:19;;;;;;;8.82;3.55;;;0.80;2201.60;;;;;;5063941;28;19955;-75
2023/02/05 00:43:45;;;;;;;8.82;3.83;;;0.80;2201.60;;;;;;5056993;28;20028;-75
2023/02/05 00:46:11;;;;;;;;;;;0.80;2201.60;;;;;;5057406;28;20025;-75
2023/02/05 00:48:38;;;;;;;7.03;3.63;;;0.80;2201.60;;;;;;5062709;28;19905;-75
2023/02/05 00:51:04;;;;;;;6.25;3.50;;;0.80;2201.60;;;;;;5070691;28;20257;-75
2023/02/05 00:53:30;;;;;;;8.18;4.15;;;0.90;2201.60;;;;;;5056847;28;20104;-75
2023/02/05 00:55:56;;;;;;;;;;;0.80;2201.60;;;;;;5064858;28;20068;-75
2023/02/05 00:58:22;;;;;;;7.85;3.85;;;0.80;2201.60;;;;;;5074628;28;19995;-75
2023/02/05 01:00:48;;;;;;;;;;;0.70;2201.60;;;;;;5062840;28;20090;-75
2023/02/05 01:03:14;;;;;;;9.00;3.28;;;0.60;2201.60;;;;;;5063597;28;19991;-75
2023/02/05 01:05:40;;;;;;;;;;;0.60;2201.60;;;;;;5061856;28;20119;-75
2023/02/05 01:08:07;;;;;;;10.13;4.45;;;0.70;2201.60;;;;;;5082123;28;20017;-75
2023/02/05 01:10:34;;;;;;;8.88;3.97;;;0.60;2201.60;;;;;;5063481;28;20398;-75
2023/02/05 01:12:59;;;;;;;8.73;3.83;;;0.60;2201.60;;;;;;5059757;28;20056;-75
2023/02/05 01:15:25;;;;;;;;;;;0.50;2201.60;;;;;;5058999;28;20025;-75
2023/02/05 01:17:51;;;;;;;11.32;4.80;;;0.50;2201.60;;;;;;5061154;28;19915;-75
2023/02/05 01:20:16;;;;;;;;;;;0.60;2201.60;;;;;;5058962;28;20037;-75
2023/02/05 01:22:42;;;;;;;11.18;5.32;;;0.40;2201.60;;;;;;5061829;28;20387;-76
2023/02/05 01:25:08;;;;;;;;;;;0.50;2201.60;;;;;;5061720;28;20480;-75
2023/02/05 01:27:35;;;;;;;10.52;4.88;;;0.60;2201.60;;;;;;5076638;28;19915;-75
2023/02/05 01:30:01;;;;;;;8.65;4.53;;;0.60;2201.60;;;;;;5060404;28;20120;-74
2023/02/05 01:32:28;;;;;;;8.80;4.53;;;0.60;2201.60;;;;;;5063666;28;20111;-75
2023/02/05 01:34:54;;;;;;;11.55;4.80;;;0.60;2201.60;;;;;;5060461;28;20025;-76
2023/02/05 01:37:20;;;;;;;;;;;0.60;2201.60;;;;;;5058658;28;20076;-75
2023/02/05 01:39:46;;;;;;;8.65;3.80;;;0.60;2201.60;;;;;;5064009;28;19997;-75
2023/02/05 01:42:19;;;;;;;;;;;0.60;2201.60;;;;;;5056633;28;20059;-75
2023/02/05 01:45:31;;;;;;;12.45;4.72;;;0.50;2201.60;;;;;;5060043;28;19955;-75
2023/02/05 01:48:01;;;;;;;9.98;4.70;;;0.60;2201.60;;;;;;5059851;28;20021;-75
2023/02/05 01:50:36;;;;;;;9.02;4.30;;;0.50;2201.60;;;;;;5061072;28;20044;-74
2023/02/05 01:53:06;;;;;;;9.38;3.95;;;0.50;2201.60;;;;;;5076430;28;20136;-75
2023/02/05 01:55:39;;;;;;;9.93;3.75;;;0.50;2201.60;;;;;;5089228;28;20122;-76
2023/02/05 01:58:05;;;;;;;8.10;3.67;;;0.50;2201.60;;;;;;5092905;28;20031;-76
2023/02/05 02:00:31;;;;;;;8.55;4.20;;;0.30;2201.60;;;;;;5070509;28;20554;-75
2023/02/05 02:02:57;;;;;;;;;;;0.40;2201.60;;;;;;5063850;28;20064;-75
2023/02/05 02:05:22;;;;;;;9.45;4.03;;;0.40;2201.60;;;;;;5077456;28;20342;-75
2023/02/05 02:07:48;;;;;;;;;;;0.50;2201.60;;;;;;5061800;28;20032;-75
2023/02/05 02:10:16;;;;;;;8.77;3.63;;;0.50;2201.60;;;;;;5063004;28;20006;-75
2023/02/05 02:12:45;;;;;;;7.00;3.35;;;0.40;2201.60;;;;;;5064811;28;20048;-75
2023/02/05 02:15:17;;;;;;;9.18;3.80;;;0.40;2201.60;;;;;;5062119;28;20079;-74
2023/02/05 02:17:46;;;;;;;6.43;3.13;;;0.40;2201.60;;;;;;5065629;28;20100;-75
2023/02/05 02:20:17;;;;;;;7.75;3.30;;;0.40;2201.60;;;;;;5063572;28;20028;-75
2023/02/05 02:22:52;;;;;;;6.95;4.13;;;0.50;2201.60;;;;;;5063963;28;20389;-75
2023/02/05 02:25:50;;;;;;;10.43;4.15;;;0.60;2201.60;;;;;;5063156;28;20462;-76
2023/02/05 02:28:27;;;;;;;12.60;4.78;;;0.50;2201.60;;;;;;5053125;28;20033;-75
2023/02/05 02:31:11;;;;;;;12.25;5.25;;;0.60;2201.60;;;;;;5053443;28;20052;-75
2023/02/05 02:33:51;;;;;;;14.90;5.97;;;0.60;2201.60;;;;;;5053046;28;20048;-75
2023/02/05 02:36:31;;;;;;;11.18;5.60;;;0.50;2201.60;;;;;;5044789;28;20068;-75
2023/02/05 02:39:37;;;;;;;10.57;4.90;;;0.40;2201.60;;;;;;5053123;28;20090;-74
2023/02/05 02:42:18;;;;;;;7.95;3.80;;;0.50;2201.60;;;;;;4991312;28;20061;-76
2023/02/05 02:44:55;;;;;;;7.65;4.53;;;0.50;2201.60;;;;;;4983819;28;20080;-76
2023/02/05 02:47:27;;;;;;;6.63;3.13;;;0.40;2201.60;;;;;;4969593;28;20038;-76
2023/02/05 02:49:56;;;;;;;8.75;3.78;;;0.50;2201.60;;;;;;4977512;28;20117;-75
2023/02/05 02:52:25;;;;;;;6.50;3.70;;;0.60;2201.60;;;;;;4993644;28;20043;-75
2023/02/05 02:54:55;;;;;;;8.65;3.40;;;0.60;2201.60;;;;;;4993617;28;20149;-75
2023/02/05 02:57:25;;;;;;;7.18;3.40;;;0.60;2201.60;;;;;;4991047;28;20030;-75
2023/02/05 02:59:53;;;;;;;6.15;2.72;;;0.70;2201.60;;;;;;4993579;28;20061;-75
2023/02/05 03:02:20;;;;;;;7.07;3.35;;;0.70;2201.60;;;;;;4993521;28;20608;-74
2023/02/05 03:04:54;;;;;;;6.88;2.88;;;0.60;2201.60;;;;;;4991281;28;20172;-75
2023/02/05 03:07:27;;;;;;;8.68;3.58;;;0.70;2201.60;;;;;;4981818;28;20038;-75
2023/02/05 03:10:17;;;;;;;6.43;3.53;;;0.60;2201.60;;;;;;4983085;28;20082;-75
2023/02/05 03:12:42;;;;;;;8.43;3.20;;;0.50;2201.60;;;;;;4982954;28;20078;-75
2023/02/05 03:15:08;;;;;;;;;;;0.50;2201.60;;;;;;4984124;28;20479;-75
2023/02/05 03:17:35;;;;;;;5.05;2.75;;;0.70;2201.60;;;;;;4967846;28;19905;-75
2023/02/05 03:20:32;;;;;;;7.95;3.35;;;0.60;2201.60;;;;;;5062251;28;20025;-75
2023/02/05 03:22:57;;;;;;;5.33;2.77;;;0.60;2201.60;;;;;;5064291;28;20154;-75
2023/02/05 03:25:24;;;;;;;;;;;0.60;2201.60;;;;;;5059447;28;20087;-75
2023/02/05 03:27:52;;;;;;;9.32;3.97;;;0.60;2201.60;;;;;;5065036;28;19905;-75
2023/02/05 03:30:18;;;;;;;15.85;5.88;;;0.60;2201.60;;;;;;5066074;28;20100;-75
2023/02/05 03:33:02;;;;;;;10.75;3.40;;;0.60;2201.60;;;;;;5058937;28;20021;-75
2023/02/05 03:35:41;;;;;;;6.72;3.70;;;0.70;2201.60;;;;;;5064118;28;20102;-75
2023/02/05 03:38:40;;;;;;;6.75;3.25;;;0.60;2201.60;;;;;;5063862;28;20102;-75
2023/02/05 03:42:10;;;;;;;9.57;3.60;;;0.60;2201.60;;;;;;5081037;28;20040;-76
2023/02/05 03:44:47;;;;;;;12.68;4.90;;;0.60;2201.60;;;;;;5051824;28;20051;-75
2023/02/05 03:47:37;;;;;;;11.63;3.70;;;0.60;2201.60;;;;;;5069351;28;20025;-75
2023/02/05 03:50:12;;;;;;;11.23;3.70;;;0.60;2201.60;;;;;;5085994;28;20052;-76
2023/02/05 03:52:44;;;;;;;6.53;3.50;;;0.60;2201.60;;;;;;5086094;28;20025;-76
2023/02/05 03:55:18;;;;;;;8.23;3.20;;;0.60;2201.60;;;;;;5052331;28;20025;-75
2023/02/05 03:57:56;;;;;;;6.28;2.63;;;0.60;2201.60;;;;;;5052364;28;20397;-76
2023/02/05 04:00:24;;;;;;;6.22;2.88;;;0.60;2201.60;;;;;;5053469;28;20206;-76
2023/02/05 04:02:50;;;;;;;8.95;4.55;;;0.70;2201.60;;;;;;5052866;28;20485;-77
2023/02/05 04:05:15;;;;;;;;;;;0.70;2201.60;;;;;;5052482;28;20033;-76
2023/02/05 04:07:41;;;;;;;9.68;4.88;;;0.70;2201.60;;;;;;5051288;28;19905;-76
2023/02/05 04:10:07;;;;;;;;;;;0.50;2201.60;;;;;;5053299;28;20033;-76
2023/02/05 04:12:33;;;;;;;8.38;3.78;;;0.40;2201.60;;;;;;5051913;28;19917;-76
2023/02/05 04:14:58;;;;;;;;;;;0.50;2201.60;;;;;;5052516;28;20029;-76
2023/02/05 04:17:24;;;;;;;9.90;4.10;;;0.50;2201.60;;;;;;5052142;28;19904;-76
2023/02/05 04:19:50;;;;;;;;;;;0.50;2201.60;;;;;;5052110;28;20449;-76
2023/02/05 04:22:15;;;;;;;6.43;2.65;;;0.50;2201.60;;;;;;5051915;28;19913;-75
2023/02/05 04:24:41;;;;;;;;;;;0.50;2201.60;;;;;;5052062;28;20115;-76
2023/02/05 04:27:07;;;;;;;15.60;6.45;;;0.50;2201.60;;;;;;5085194;28;20011;-76
2023/02/05 04:29:32;;;;;;;;;;;0.50;2201.60;;;;;;5052320;28;20539;-75
2023/02/05 04:31:58;;;;;;;13.85;6.88;;;0.40;2201.60;;;;;;5051505;28;19949;-75
2023/02/05 04:34:23;;;;;;;;;;;0.40;2201.60;;;;;;5052277;28;20021;-76
2023/02/05 04:36:49;;;;;;;16.20;7.13;;;0.40;2201.60;;;;;;5075937;28;19957;-75
2023/02/05 04:39:15;;;;;;;;;;;0.30;2201.60;;;;;;5085850;28;20469;-76
2023/02/05 04:41:40;;;;;;;7.65;2.97;;;0.20;2201.60;;;;;;5096909;28;19982;-76
2023/02/05 04:44:06;;;;;;;;;;;0.10;2201.60;;;;;;5081332;28;20020;-75
2023/02/05 04:46:32;;;;;;;6.13;2.35;;;0.20;2201.60;;;;;;5081478;28;20262;-75
2023/02/05 04:48:57;;;;;;;;;;;0.20;2201.60;;;;;;5076198;28;20025;-75
2023/02/05 04:51:23;;;;;;;7.22;2.85;;;0.10;2201.60;;;;;;5073542;28;19935;-76
2023/02/05 04:53:48;;;;;;;;;;;0.00;2201.60;;;;;;5069457;28;20028;-76
2023/02/05 04:56:15;;;;;;;8.80;3.72;;;0.00;2201.60;;;;;;5077961;28;19904;-76
2023/02/05 04:58:42;;;;;;;11.95;4.70;;;0.00;2201.60;;;;;;5073336;28;20141;-76
2023/02/05 05:01:34;;;;;;;7.72;3.42;;;0.00;2201.60;;;;;;5082101;28;20087;-76
2023/02/05 05:04:00;;;;;;;7.28;2.70;;;0.00;2201.60;;;;;;5082794;28;20035;-76
2023/02/05 05:06:26;;;;;;;;;;;0.10;2201.60;;;;;;5076344;28;20408;-75
2023/02/05 05:08:52;;;;;;;4.93;2.28;;;0.10;2201.60;;;;;;5078979;28;20348;-75
2023/02/05 05:11:18;;;;;;;5.95;3.22;;;0.10;2201.60;;;;;;5080325;28;20131;-75
2023/02/05 05:13:44;;;;;;;;;;;0.10;2201.60;;;;;;5074507;28;20139;-75
2023/02/05 05:16:11;;;;;;;7.57;3.38;;;0.10;2201.60;;;;;;5077519;28;19911;-76
2023/02/05 05:18:38;;;;;;;6.63;2.88;;;0.10;2201.60;;;;;;5071851;28;20012;-75
2023/02/05 05:21:04;;;;;;;5.25;2.72;;;12.90;2201.60;;;;;;5075947;28;20024;-76
2023/02/05 05:23:30;;;;;;;9.27;3.35;;;12.90;2201.60;;;;;;5067459;28;20028;-76
2023/02/05 05:25:56;;;;;;;9.02;3.70;;;12.90;2201.60;;;;;;5078878;28;20047;-76
2023/02/05 05:28:22;;;;;;;;;;;13.00;2201.60;;;;;;5079230;28;20411;-75
2023/02/05 05:30:47;;;;;;;8.70;3.05;;;12.90;2201.60;;;;;;5078865;28;19904;-75
2023/02/05 05:33:13;;;;;;;;;;;12.90;2201.60;;;;;;5072880;28;20149;-75
2023/02/05 05:35:39;;;;;;;14.93;6.10;;;12.90;2201.60;;;;;;5083286;28;19933;-76
2023/02/05 05:38:05;;;;;;;;;;;12.90;2201.60;;;;;;5081230;28;20027;-75
2023/02/05 05:46:03;;;;;;;;;;;13.00;2201.60;;;;;;5089013;28;20120;-75
2023/02/05 05:48:28;;;;;;;4.55;2.38;;;13.00;2201.60;;;;;;5078230;28;20391;-75
2023/02/05 05:50:54;;;;;;;;;;;12.90;2201.60;;;;;;5085312;28;20035;-76
2023/02/05 05:53:20;;;;;;;7.55;2.92;;;12.90;2201.60;;;;;;5079332;28;19908;-75
2023/02/05 05:55:45;;;;;;;;;;;13.00;2201.60;;;;;;5082391;28;20036;-76
2023/02/05 05:58:12;;;;;;;7.40;3.00;;;13.00;2201.60;;;;;;5080195;28;19930;-75
2023/02/05 06:00:39;;;;;;;4.85;2.15;;;13.00;2201.60;;;;;;5080023;28;20105;-75
2023/02/05 06:03:05;;;;;;;6.68;2.28;;;13.00;2201.60;;;;;;5075038;28;20032;-76
2023/02/05 06:05:31;;;;;;;4.90;2.13;;;13.10;2201.60;;;;;;5075246;28;20099;-75
2023/02/05 06:07:58;;;;;;;9.82;3.60;;;13.00;2201.60;;;;;;5080763;28;20016;-76
2023/02/05 06:10:24;;;;;;;12.27;4.63;;;13.00;2201.60;;;;;;5083189;28;20045;-76
2023/02/05 06:12:51;;;;;;;11.18;4.88;;;13.00;2201.60;;;;;;5075747;28;20054;-75
2023/02/05 06:15:18;;;;;;;8.52;3.00;;;13.00;2201.60;;;;;;5076380;28;20024;-76
2023/02/05 06:17:44;;;;;;;9.32;4.13;;;13.00;2201.60;;;;;;5079367;28;20020;-77
2023/02/05 06:20:10;;;;;;;;;;;13.10;2201.60;;;;;;5080607;28;20027;-75
2023/02/05 06:22:35;;;;;;;9.65;3.88;;;13.00;2201.60;;;;;;5078901;28;19959;-76
2023/02/05 06:25:01;;;;;;;;;;;13.00;2201.60;;;;;;5075420;28;20046;-75
2023/02/05 06:27:27;;;;;;;8.45;4.53;;;13.00;2201.60;;;;;;5085911;28;19978;-75
2023/02/05 06:29:52;;;;;;;;;;;13.00;2201.60;;;;;;5077948;28;20021;-76
2023/02/05 06:32:18;;;;;;;11.88;4.55;;;13.10;2201.60;;;;;;5081674;28;19914;-75
2023/02/05 06:34:44;;;;;;;;;;;13.00;2201.60;;;;;;5078387;28;20362;-75
2023/02/05 06:37:10;;;;;;;18.55;8.35;;;13.00;2201.60;;;;;;5080861;28;20349;-76
2023/02/05 06:39:36;;;;;;;;;;;0.30;2201.60;;;;;;5098724;28;20165;-76
2023/02/05 06:42:02;;;;;;;27.05;11.93;;;13.00;2201.60;;;;;;5085361;28;20377;-76
2023/02/05 06:44:27;;;;;;;;;;;13.10;2201.60;;;;;;5080467;28;20054;-76
2023/02/05 06:46:53;;;;;;;13.70;6.80;;;13.00;2201.60;;;;;;5075723;28;19939;-76
2023/02/05 06:49:19;;;;;;;;;;;13.00;2201.60;;;;;;5081917;28;20085;-75
2023/02/05 06:51:45;;;;;;;11.10;5.20;;;12.90;2201.60;;;;;;5072705;28;19904;-78
2023/02/05 06:54:10;;;;;;;;;;;12.90;2201.60;;;;;;5074929;28;20040;-74
2023/02/05 06:56:36;;;;;;;14.60;6.00;;;12.90;2201.60;;;;;;5076633;28;19908;-75
2023/02/05 06:59:01;;;;;;;;;;;12.90;2201.60;;;;;;5077469;28;20021;-74
2023/02/05 07:01:27;;;;;;;10.75;4.38;;;12.90;2201.60;;;;;;5087020;28;19917;-74
2023/02/05 07:03:55;;;;;;;;;;;12.90;2201.60;;;;;;5070168;28;20033;-74
2023/02/05 07:06:22;;;;;;;;;;;12.90;2201.60;;;;;;5066747;28;19915;-77
2023/02/05 07:08:48;;;;;;;7.88;4.13;;;0.00;2201.60;;;;;;5066933;28;19967;-78
2023/02/05 07:11:14;;;;;;;8.60;3.83;;;12.90;2201.60;;;;;;5061401;28;20045;-77
2023/02/05 07:13:40;;;;;;;;;;;0.00;2201.60;;;;;;5072338;28;20370;-77
2023/02/05 07:16:06;;;;;;;8.63;3.95;;;0.00;2201.60;;;;;;5066714;28;19909;-79
2023/02/05 07:18:33;;;;;;;9.27;3.63;;;12.90;2201.60;;;;;;5065254;28;20024;-79
2023/02/05 07:20:59;;;;;;;12.45;4.65;;;0.00;2201.60;;;;;;5060708;28;20029;-79
2023/02/05 07:23:25;;;;;;;;;;;0.00;2201.60;;;;;;5058485;28;20036;-77
2023/02/05 07:25:50;;;;;;;18.85;8.15;;;0.20;2201.60;;;;;;5064317;28;19912;-75
2023/02/05 07:28:16;;;;;;;;;;;0.30;2201.60;;;;;;5060264;28;20056;-76
2023/02/05 07:30:42;;;;;;;12.30;5.05;;;0.40;2201.60;;;;;;5077205;28;19916;-75
2023/02/05 07:33:08;;;;;;;;;;;0.50;2201.60;;;;;;5069183;28;20495;-75
2023/02/05 07:35:36;;;;;;;6.35;2.47;;;0.50;2201.60;;;;;;5069569;28;19908;-75
2023/02/05 07:38:02;;;;;;;7.07;3.53;;;0.50;2201.60;;;;;;5059225;28;20025;-76
2023/02/05 07:40:28;;;;;;;9.25;4.03;;;0.60;2201.60;;;;;;5058963;28;20117;-77
2023/02/05 07:42:54;;;;;;;;;;;0.70;2201.60;;;;;;5063355;28;20132;-76
2023/02/05 07:45:20;;;;;;;10.27;3.72;;;0.60;2201.60;;;;;;5064266;28;19904;-75
2023/02/05 07:47:48;;;;;;;;;;;0.80;2201.60;;;;;;5073340;28;20125;-74
2023/02/05 07:50:14;;;;;;;6.18;2.80;;;0.80;2201.60;;;;;;5080485;28;19910;-78
2023/02/05 07:52:40;;;;;;;10.05;4.35;;;0.90;2201.60;;;;;;5058996;28;20133;-77
2023/02/05 07:55:06;;;;;;;;;;;25.60;2201.60;;;;;;5067952;28;20521;-76
2023/02/05 07:57:31;;;;;;;7.10;2.70;;;25.70;2201.60;;;;;;5075027;28;19908;-76
2023/02/05 07:59:57;;;;;;;;;;;25.80;2201.60;;;;;;5060134;28;20059;-77
2023/02/05 08:02:23;;;;;;;8.05;3.05;;;25.80;2201.60;;;;;;5064673;28;20051;-78
2023/02/05 08:04:48;;;;;;;;;;;25.90;2201.60;;;;;;5061302;28;20021;-79
2023/02/05 08:07:14;;;;;;;7.97;3.55;;;25.90;2201.60;;;;;;5067459;28;19934;-79
2023/02/05 08:09:39;;;;;;;;;;;25.90;2201.60;;;;;;5066048;28;20043;-78
2023/02/05 08:12:05;;;;;;;8.07;3.42;;;26.00;2201.60;;;;;;5063264;28;19978;-78
2023/02/05 08:14:31;;;;;;;;;;;26.00;2201.60;;;;;;5062476;28;20029;-76
2023/02/05 08:16:57;;;;;;;9.40;3.42;;;26.00;2201.60;;;;;;5080242;28;19915;-76
2023/02/05 08:19:24;;;;;;;9.73;3.83;;;26.00;2201.60;;;;;;5066294;28;20036;-76
2023/02/05 08:21:50;;;;;;;9.32;3.30;;;26.00;2201.60;;;;;;5069348;28;20081;-75
2023/02/05 08:24:16;;;;;;;6.07;3.15;;;26.00;2201.60;;;;;;5059840;28;20424;-76
2023/02/05 08:26:42;;;;;;;;;;;26.00;2201.60;;;;;;5064547;28;20033;-75
2023/02/05 08:29:09;;;;;;;8.35;4.18;;;26.20;2201.60;;;;;;5078471;28;19905;-76
2023/02/05 08:31:35;;;;;;;8.05;3.40;;;26.20;2201.60;;;;;;5067337;28;20021;-75
2023/02/05 08:34:02;;;;;;;7.25;3.65;;;26.20;2201.60;;;;;;5057560;28;20029;-75
2023/02/05 08:36:28;;;;;;;7.15;3.60;;;26.20;2201.60;;;;;;5054713;28;20029;-75
2023/02/05 08:38:54;;;;;;;10.07;3.88;;;26.10;2201.60;;;;;;5065773;28;20020;-76
2023/02/05 08:41:19;;;;;;;;;;;26.20;2201.60;;;;;;5062642;28;20044;-76
2023/02/05 08:43:48;;;;;;;5.97;3.35;;;26.30;2201.60;;;;;;5077426;28;19912;-76
2023/02/05 08:46:17;;;;;;;7.03;3.47;;;26.30;2201.60;;;;;;5062174;28;20029;-75
2023/02/05 08:48:43;;;;;;;7.03;3.60;;;26.40;2201.60;;;;;;5081818;28;20079;-75
2023/02/05 08:51:09;;;;;;;;;;;26.50;2201.60;;;;;;5060001;28;20518;-75
2023/02/05 08:53:35;;;;;;;8.10;3.77;;;26.50;2201.60;;;;;;5080679;28;19912;-78
2023/02/05 08:56:01;;;;;;;;;;;26.50;2201.60;;;;;;5057367;28;20033;-76
2023/02/05 08:58:27;;;;;;;6.40;3.33;;;26.50;2201.60;;;;;;5063874;28;19908;-76
2023/02/05 09:00:59;;;;;;;;;;;26.50;2201.60;;;;;;5069823;28;20036;-75
2023/02/05 09:03:25;;;;;;;10.60;4.60;;;26.50;2201.60;;;;;;5059559;28;19966;-74
2023/02/05 09:05:51;;;;;;;11.05;4.05;;;51.20;2227.20;;;;;;5075617;28;20036;-74
2023/02/05 09:08:16;;;;;;;;;;;51.30;2227.20;;;;;;5065789;28;20025;-74
2023/02/05 09:10:43;;;;;;;8.95;5.15;;;51.30;2227.20;;;;;;5065624;28;20464;-76
2023/02/05 09:13:09;;;;;;;9.77;4.53;;;51.40;2227.20;;;;;;5058426;28;20094;-75
2023/02/05 09:15:40;;;;;;;9.75;4.45;;;51.30;2227.20;;;;;;5067485;28;20508;-76
2023/02/05 09:18:06;;;;;;;8.77;4.65;;;51.30;2227.20;;;;;;5062430;28;20048;-76
2023/02/05 09:20:31;;;;;;;;;;;51.40;2227.20;;;;;;5085672;28;20060;-75
2023/02/05 09:22:57;;;;;;;7.32;4.10;;;51.30;2227.20;;;;;;5079285;28;19923;-77
2023/02/05 09:25:22;;;;;;;;;;;51.50;2227.20;;;;;;5066020;28;20017;-76
2023/02/05 09:27:48;;;;;;;8.50;4.47;;;51.40;2227.20;;;;;;5069587;28;19905;-77
2023/02/05 09:30:14;;;;;;;;;;;51.40;2227.20;;;;;;5074737;28;20379;-77
2023/02/05 09:32:39;;;;;;;12.60;5.15;;;51.40;2201.60;;;;;;5072605;28;19908;-76
2023/02/05 09:35:05;;;;;;;;;;;51.30;2227.20;;;;;;5068824;28;20108;-77
2023/02/05 09:37:31;;;;;;;6.43;3.13;;;51.40;2201.60;;;;;;5070460;28;19908;-77
2023/02/05 09:39:56;;;;;;;;;;;51.60;2176.00;;;;;;5068976;28;20020;-79
2023/02/05 09:42:50;;;;;;;9.77;4.13;;;51.70;2176.00;;;;;;5072782;28;19920;-78
2023/02/05 09:45:22;;;;;;;17.13;5.40;;;52.00;2124.80;;;;;;5068515;28;20017;-79
2023/02/05 09:48:17;;;;;;;10.05;4.60;;;52.10;2099.20;;;;;;5071299;28;20051;-79
2023/02/05 09:50:42;;;;;;;7.32;3.95;;;77.30;2073.60;;;;;;5059687;28;20052;-77
2023/02/05 09:53:20;;;;;;;;;;;77.60;2073.60;;;;;;5066953;28;20489;-80
2023/02/05 09:55:47;;;;;;;6.43;2.92;;;77.40;1971.20;;;;;;5080150;28;19909;-80
2023/02/05 09:58:17;;;;;;;8.15;3.50;;;77.60;1945.60;;;;;;5075950;28;20025;-81
2023/02/05 10:00:50;;;;;;;7.93;3.65;;;77.60;1971.20;;;;;;5060367;28;20030;-79
2023/02/05 10:03:27;;;;;;;7.57;4.05;;;77.10;1971.20;;;;;;5074039;28;20643;-79
2023/02/05 10:06:05;;;;;;;12.75;3.95;;;76.80;2022.40;;;;;;5089812;28;20032;-78
2023/02/05 10:08:42;;;;;;;10.90;4.60;;;52.10;2073.60;;;;;;5079434;28;20020;-78
2023/02/05 10:11:15;;;;;;;;;;;52.10;2099.20;;;;;;5060178;28;20039;-80
2023/02/05 10:13:43;;;;;;;11.25;4.38;;;52.10;2099.20;;;;;;5079335;28;19911;-78
2023/02/05 10:16:34;;;;;;;12.13;4.90;;;76.90;2099.20;;;;;;5082899;28;20036;-77
2023/02/05 10:19:37;;;;;;;8.25;4.00;;;76.80;2124.80;;;;;;5080853;28;20032;-76
2023/02/05 10:22:17;;;;;;;13.02;5.75;;;52.10;2099.20;;;;;;5042974;28;20512;-77
2023/02/05 10:25:07;;;;;;;6.85;3.70;;;52.00;2124.80;;;;;;5048765;28;20057;-79
2023/02/05 10:27:42;;;;;;;13.20;4.10;;;76.90;2150.40;;;;;;5057243;28;20509;-77
2023/02/05 10:30:11;;;;;;;6.88;3.17;;;77.70;2022.40;;;;;;5066995;28;20029;-76
2023/02/05 10:32:57;;;;;;;8.25;4.15;;;102.40;1971.20;;;;;;5061505;28;20087;-77
2023/02/05 10:35:23;;;;;;;10.13;4.15;;;102.40;1996.80;;;;;;5050143;28;20580;-78
2023/02/05 10:37:54;;;;;;;;;;;102.80;1945.60;;;;;;5057723;28;20040;-78
2023/02/05 10:40:24;;;;;;;9.18;4.45;;;103.10;1868.80;;;;;;5045384;28;19998;-77
2023/02/05 10:42:56;;;;;;;9.57;3.53;;;103.20;1868.80;;;;;;5048786;28;20041;-78
2023/02/05 10:45:26;;;;;;;11.00;3.92;;;103.00;1868.80;;;;;;5057928;28;20040;-77
2023/02/05 10:48:03;;;;;;;7.80;3.88;;;128.00;1817.60;;;;;;5054209;28;20028;-77
2023/02/05 10:50:56;;;;;;;8.45;3.40;;;103.00;1792.00;;;;;;5043126;28;20522;-79
2023/02/05 10:53:24;;;;;;;8.27;3.75;;;103.00;1843.20;;;;;;5065459;28;20029;-77
2023/02/05 10:55:50;;;;;;;7.20;3.65;;;128.20;1843.20;;;;;;5046362;28;20123;-79
2023/02/05 10:58:48;;;;;;;10.13;4.30;;;128.50;1792.00;;;;;;5052479;28;20489;-78
2023/02/05 11:01:17;;;;;;;7.18;3.20;;;128.10;1817.60;;;;;;5074626;28;20444;-79
2023/02/05 11:04:10;;;;;;;7.15;3.90;;;102.80;1817.60;;;;;;5079200;28;20039;-80
2023/02/05 11:06:43;;;;;;;7.78;4.13;;;102.50;1792.00;;;;;;5040285;28;20045;-79
2023/02/05 11:09:23;;;;;;;7.22;3.67;;;103.30;1792.00;;;;;;5046499;28;20029;-78
2023/02/05 11:11:52;;;;;;;6.20;3.20;;;103.00;1817.60;;;;;;5051983;28;20053;-78
2023/02/05 11:14:32;;;;;;;8.80;3.10;;;102.90;1792.00;;;;;;5036179;28;20033;-78
2023/02/05 11:17:03;;;;;;;5.55;3.00;;;102.60;1792.00;;;;;;5049885;28;20394;-79
2023/02/05 11:19:29;;;;;;;6.68;3.65;;;77.70;1843.20;;;;;;5052931;28;20037;-79
2023/02/05 11:21:59;;;;;;;;;;;102.80;1843.20;;;;;;5035832;28;20055;-76
2023/02/05 11:24:31;;;;;;;7.68;3.92;;;128.20;1817.60;;;;;;5035442;28;19967;-77
2023/02/05 11:27:19;;;;;;;7.85;3.55;;;128.00;1766.40;;;;;;5035564;28;20036;-77
2023/02/05 11:29:45;;;;;;;6.82;3.17;;;103.00;1740.80;;;;;;5033556;28;20045;-78
2023/02/05 11:32:37;;;;;;;;;;;128.10;1740.80;;;;;;5052410;28;20025;-79
2023/02/05 11:35:22;;;;;;;7.18;3.47;;;128.60;1715.20;;;;;;5047450;28;19952;-77
2023/02/05 11:38:07;;;;;;;14.68;5.05;;;153.80;1664.00;;;;;;5052098;28;20065;-76
2023/02/05 11:40:34;;;;;;;6.60;3.20;;;128.90;1689.60;;;;;;5034192;28;20060;-78
2023/02/05 11:43:02;;;;;;;5.97;3.40;;;128.40;1740.80;;;;;;5030864;28;20049;-78
2023/02/05 11:45:29;;;;;;;10.05;4.57;;;128.30;1715.20;;;;;;5061343;28;20390;-78
2023/02/05 11:47:56;;;;;;;9.20;4.40;;;128.90;1689.60;;;;;;5067489;28;20083;-77
2023/02/05 11:50:28;;;;;;;10.60;5.03;;;153.80;1689.60;;;;;;5065657;28;20056;-77
2023/02/05 11:53:04;;;;;;;10.43;4.07;;;128.80;1689.60;;;;;;5069929;28;20028;-78
2023/02/05 11:55:33;;;;;;;4.47;2.78;;;128.40;1689.60;;;;;;5058570;28;20057;-77
2023/02/05 11:58:05;;;;;;;8.20;3.47;;;128.60;1664.00;;;;;;5072177;28;20040;-77
2023/02/05 12:00:31;;;;;;;7.10;3.78;;;153.60;1664.00;;;;;;5058410;28;20070;-76
2023/02/05 12:03:04;;;;;;;;;;;128.60;1689.60;;;;;;5062144;28;20037;-78
2023/02/05 12:05:42;;;;;;;6.53;3.03;;;128.50;1689.60;;;;;;5062332;28;20326;-77
2023/02/05 12:08:26;;;;;;;6.95;3.53;;;128.90;1664.00;;;;;;5055800;28;20029;-77
2023/02/05 12:10:56;;;;;;;7.45;3.63;;;153.70;1664.00;;;;;;5063453;28;20028;-78
2023/02/05 12:13:49;;;;;;;4.63;2.75;;;128.60;1638.40;;;;;;5057691;28;20048;-78
2023/02/05 12:16:21;;;;;;;6.70;3.13;;;128.10;1664.00;;;;;;5084137;28;20037;-79
2023/02/05 12:18:47;;;;;;;7.82;4.05;;;128.20;1664.00;;;;;;5066972;28;20107;-78
2023/02/05 12:21:31;;;;;;;;;;;128.60;1689.60;;;;;;5078476;28;20060;-81
2023/02/05 12:24:06;;;;;;;6.70;3.67;;;128.90;1689.60;;;;;;5069049;28;19922;-77
2023/02/05 12:26:39;;;;;;;7.57;3.75;;;153.70;1664.00;;;;;;5067810;28;20486;-80
2023/02/05 12:29:20;;;;;;;6.72;3.38;;;128.40;1664.00;;;;;;5064334;28;20033;-80
2023/02/05 12:32:20;;;;;;;7.13;3.60;;;128.90;1638.40;;;;;;5072659;28;20029;-79
2023/02/05 12:35:03;;;;;;;8.98;3.63;;;128.90;1638.40;;;;;;5069910;28;20062;-80
2023/02/05 12:38:03;;;;;;;6.43;3.47;;;153.60;1612.80;;;;;;5063733;28;20029;-79
2023/02/05 12:41:14;;;;;;;7.15;3.40;;;128.90;1612.80;;;;;;5068294;28;20037;-79
2023/02/05 12:43:46;;;;;;;6.50;3.90;;;153.80;1612.80;;;;;;5077385;28;20052;-77
2023/02/05 12:46:53;;;;;;;7.05;3.70;;;153.70;1612.80;;;;;;5083174;28;20024;-79
2023/02/05 12:49:47;;;;;;;8.80;4.03;;;128.60;1638.40;;;;;;5061516;28;20052;-79
2023/02/05 12:52:18;;;;;;;7.30;3.47;;;128.40;1664.00;;;;;;5005119;28;20038;-78
2023/02/05 12:54:53;;;;;;;7.57;3.88;;;103.20;1638.40;;;;;;4990144;28;20068;-81
2023/02/05 12:57:23;;;;;;;10.25;3.45;;;103.00;1664.00;;;;;;5003145;28;20038;-80
2023/02/05 13:00:09;;;;;;;4.38;2.70;;;102.90;1664.00;;;;;;5001522;28;20476;-81
2023/02/05 13:02:43;;;;;;;7.80;3.33;;;102.90;1664.00;;;;;;4987148;28;20042;-81
2023/02/05 13:05:14;;;;;;;6.75;3.10;;;128.00;1689.60;;;;;;5008522;28;20330;-82
2023/02/05 13:08:07;;;;;;;6.55;3.25;;;128.20;1689.60;;;;;;4985030;28;20038;-80
2023/02/05 13:11:06;;;;;;;7.97;3.42;;;103.10;1689.60;;;;;;4989993;28;20129;-81